Pico dos Marins, Brazil
Current Conditions -  °F | °C
As of 1:00 PM on Friday 19 Dec 2014 (Local Time) from SBGW Reporting Station
Scattered Clouds Scattered Clouds  
Wind Chill: 88°   Ceiling: Unl
Heat Index: 91°   Visibility: 6mi
Dew Point: 68°   Wind: 3mph
Humidity: 52%   Direction: 20°NNE
Pressure: 29.85"   Gusts: NA
Location:  22.51°S, 45.28°W
Report Text: SBGW 191500Z 02003KT 320V070 9999 SCT025 FEW030TCU 31/20 Q1011
Loading
Personal Weather Stations






























Interactive Weather Map New forecast layout! Learn more

10-Day Weather Forecast

Advertisements
Track Severe Weather on mobile